sensor_id;sensor_type;location;lat;lon;timestamp;temperature;humidity
17918;DHT22;9084;50.956;3.106;2023-03-01T00:00:01;1.10;1.00
17918;DHT22;9084;50.956;3.106;2023-03-01T00:02:26;1.10;1.00
17918;DHT22;9084;50.956;3.106;2023-03-01T00:04:54;1.00;1.00
17918;DHT22;9084;50.956;3.106;2023-03-01T00:07:20;1.00;1.00
17918;DHT22;9084;50.956;3.106;2023-03-01T00:09:46;1.00;1.00
17918;DHT22;9084;50.956;3.106;2023-03-01T00:12:11;1.00;1.00
17918;DHT22;9084;50.956;3.106;2023-03-01T00:14:37;1.00;1.00
17918;DHT22;9084;50.956;3.106;2023-03-01T00:17:03;1.00;1.00
17918;DHT22;9084;50.956;3.106;2023-03-01T00:19:28;1.00;1.00
17918;DHT22;9084;50.956;3.106;2023-03-01T00:22:02;1.00;1.00
17918;DHT22;9084;50.956;3.106;2023-03-01T00:24:28;1.00;1.00
17918;DHT22;9084;50.956;3.106;2023-03-01T00:26:54;1.00;1.00
17918;DHT22;9084;50.956;3.106;2023-03-01T00:29:24;1.00;1.00
17918;DHT22;9084;50.956;3.106;2023-03-01T00:31:50;0.90;1.00
17918;DHT22;9084;50.956;3.106;2023-03-01T00:34:16;0.90;1.00
17918;DHT22;9084;50.956;3.106;2023-03-01T00:36:41;0.90;1.00
17918;DHT22;9084;50.956;3.106;2023-03-01T00:39:11;1.00;1.00
17918;DHT22;9084;50.956;3.106;2023-03-01T00:41:37;0.90;1.00
17918;DHT22;9084;50.956;3.106;2023-03-01T00:44:03;0.90;1.00
17918;DHT22;9084;50.956;3.106;2023-03-01T00:46:29;1.00;1.00
17918;DHT22;9084;50.956;3.106;2023-03-01T00:48:56;1.00;1.00
17918;DHT22;9084;50.956;3.106;2023-03-01T00:51:24;1.00;1.00
17918;DHT22;9084;50.956;3.106;2023-03-01T00:53:52;1.00;1.00
17918;DHT22;9084;50.956;3.106;2023-03-01T00:56:20;0.90;3.10
17918;DHT22;9084;50.956;3.106;2023-03-01T00:58:46;1.00;5.70
17918;DHT22;9084;50.956;3.106;2023-03-01T01:01:15;0.90;10.10
17918;DHT22;9084;50.956;3.106;2023-03-01T01:06:17;0.80;19.80
17918;DHT22;9084;50.956;3.106;2023-03-01T01:08:43;0.90;23.90
17918;DHT22;9084;50.956;3.106;2023-03-01T01:11:10;0.90;27.20
17918;DHT22;9084;50.956;3.106;2023-03-01T01:13:39;0.90;33.20
17918;DHT22;9084;50.956;3.106;2023-03-01T01:16:05;0.90;35.70
17918;DHT22;9084;50.956;3.106;2023-03-01T01:18:33;0.90;37.80
17918;DHT22;9084;50.956;3.106;2023-03-01T01:21:06;0.90;42.10
17918;DHT22;9084;50.956;3.106;2023-03-01T01:23:32;0.90;44.10
17918;DHT22;9084;50.956;3.106;2023-03-01T01:26:06;0.90;50.00
17918;DHT22;9084;50.956;3.106;2023-03-01T01:28:32;1.00;53.30
17918;DHT22;9084;50.956;3.106;2023-03-01T01:30:58;0.90;57.10
17918;DHT22;9084;50.956;3.106;2023-03-01T01:33:24;1.00;58.50
17918;DHT22;9084;50.956;3.106;2023-03-01T01:35:50;1.00;58.60
17918;DHT22;9084;50.956;3.106;2023-03-01T01:38:16;0.90;57.60
17918;DHT22;9084;50.956;3.106;2023-03-01T01:40:48;0.90;57.50
17918;DHT22;9084;50.956;3.106;2023-03-01T01:43:29;0.90;63.90
17918;DHT22;9084;50.956;3.106;2023-03-01T01:45:59;1.00;68.30
17918;DHT22;9084;50.956;3.106;2023-03-01T01:48:36;0.90;71.30
17918;DHT22;9084;50.956;3.106;2023-03-01T01:51:11;0.90;83.20
17918;DHT22;9084;50.956;3.106;2023-03-01T01:53:40;0.90;82.00
17918;DHT22;9084;50.956;3.106;2023-03-01T01:56:08;0.90;86.80
17918;DHT22;9084;50.956;3.106;2023-03-01T01:58:37;0.90;91.20
17918;DHT22;9084;50.956;3.106;2023-03-01T02:01:04;0.80;94.40
17918;DHT22;9084;50.956;3.106;2023-03-01T02:03:32;0.90;96.10
17918;DHT22;9084;50.956;3.106;2023-03-01T02:06:19;0.80;98.00
17918;DHT22;9084;50.956;3.106;2023-03-01T02:08:48;0.80;99.90
17918;DHT22;9084;50.956;3.106;2023-03-01T02:11:18;0.80;99.90
17918;DHT22;9084;50.956;3.106;2023-03-01T02:13:47;0.70;99.90
17918;DHT22;9084;50.956;3.106;2023-03-01T02:16:15;0.70;99.90
17918;DHT22;9084;50.956;3.106;2023-03-01T02:18:42;0.70;99.90
17918;DHT22;9084;50.956;3.106;2023-03-01T02:21:30;0.70;99.90
17918;DHT22;9084;50.956;3.106;2023-03-01T02:24:10;0.70;99.90
17918;DHT22;9084;50.956;3.106;2023-03-01T02:26:55;0.70;99.90
17918;DHT22;9084;50.956;3.106;2023-03-01T02:29:22;0.70;99.90
17918;DHT22;9084;50.956;3.106;2023-03-01T02:31:49;0.60;99.90
17918;DHT22;9084;50.956;3.106;2023-03-01T02:34:21;0.70;99.90
17918;DHT22;9084;50.956;3.106;2023-03-01T02:37:03;0.60;99.90
17918;DHT22;9084;50.956;3.106;2023-03-01T02:39:59;0.60;99.90
17918;DHT22;9084;50.956;3.106;2023-03-01T02:42:35;0.60;99.90
17918;DHT22;9084;50.956;3.106;2023-03-01T02:45:02;0.60;99.90
17918;DHT22;9084;50.956;3.106;2023-03-01T02:47:28;0.60;99.90
17918;DHT22;9084;50.956;3.106;2023-03-01T02:49:55;0.50;99.90
17918;DHT22;9084;50.956;3.106;2023-03-01T02:52:27;0.60;99.90
17918;DHT22;9084;50.956;3.106;2023-03-01T02:55:03;0.60;99.90
17918;DHT22;9084;50.956;3.106;2023-03-01T02:57:33;0.70;99.90
17918;DHT22;9084;50.956;3.106;2023-03-01T03:00:10;0.60;99.90
17918;DHT22;9084;50.956;3.106;2023-03-01T03:02:36;0.60;99.90
17918;DHT22;9084;50.956;3.106;2023-03-01T03:05:16;0.60;99.90
17918;DHT22;9084;50.956;3.106;2023-03-01T03:07:46;0.60;99.90
17918;DHT22;9084;50.956;3.106;2023-03-01T03:10:24;0.60;99.90
17918;DHT22;9084;50.956;3.106;2023-03-01T03:12:56;0.60;99.90
17918;DHT22;9084;50.956;3.106;2023-03-01T03:15:23;0.60;99.90
17918;DHT22;9084;50.956;3.106;2023-03-01T03:17:53;0.50;99.90
17918;DHT22;9084;50.956;3.106;2023-03-01T03:20:20;0.40;99.90
17918;DHT22;9084;50.956;3.106;2023-03-01T03:22:48;0.50;99.90
17918;DHT22;9084;50.956;3.106;2023-03-01T03:25:18;0.50;99.90
17918;DHT22;9084;50.956;3.106;2023-03-01T03:27:47;0.50;99.90
17918;DHT22;9084;50.956;3.106;2023-03-01T03:30:16;0.50;99.90
17918;DHT22;9084;50.956;3.106;2023-03-01T03:32:44;0.50;99.90
17918;DHT22;9084;50.956;3.106;2023-03-01T03:35:30;0.40;99.90
17918;DHT22;9084;50.956;3.106;2023-03-01T03:37:58;0.40;99.90
17918;DHT22;9084;50.956;3.106;2023-03-01T03:40:39;0.40;99.90
17918;DHT22;9084;50.956;3.106;2023-03-01T03:43:08;0.30;99.90
17918;DHT22;9084;50.956;3.106;2023-03-01T03:45:37;0.40;99.90
17918;DHT22;9084;50.956;3.106;2023-03-01T03:48:07;0.40;99.90
17918;DHT22;9084;50.956;3.106;2023-03-01T03:50:34;0.30;99.90
17918;DHT22;9084;50.956;3.106;2023-03-01T03:53:01;0.30;99.90
17918;DHT22;9084;50.956;3.106;2023-03-01T03:55:27;0.40;99.90
17918;DHT22;9084;50.956;3.106;2023-03-01T03:57:57;0.50;99.90
17918;DHT22;9084;50.956;3.106;2023-03-01T04:00:26;0.40;99.90
17918;DHT22;9084;50.956;3.106;2023-03-01T04:02:51;0.40;99.90
17918;DHT22;9084;50.956;3.106;2023-03-01T04:05:22;0.40;99.90
17918;DHT22;9084;50.956;3.106;2023-03-01T04:07:48;0.40;99.90
17918;DHT22;9084;50.956;3.106;2023-03-01T04:10:17;0.40;99.90
17918;DHT22;9084;50.956;3.106;2023-03-01T04:12:43;0.40;99.90
17918;DHT22;9084;50.956;3.106;2023-03-01T04:15:10;0.40;99.90
17918;DHT22;9084;50.956;3.106;2023-03-01T04:17:40;0.40;99.90
17918;DHT22;9084;50.956;3.106;2023-03-01T04:20:08;0.30;99.90
17918;DHT22;9084;50.956;3.106;2023-03-01T04:22:34;0.20;99.90
17918;DHT22;9084;50.956;3.106;2023-03-01T04:25:00;0.20;99.90
17918;DHT22;9084;50.956;3.106;2023-03-01T04:27:33;0.20;99.90
17918;DHT22;9084;50.956;3.106;2023-03-01T04:29:59;0.20;99.90
17918;DHT22;9084;50.956;3.106;2023-03-01T04:32:27;0.20;99.90
17918;DHT22;9084;50.956;3.106;2023-03-01T04:34:52;0.20;99.90
17918;DHT22;9084;50.956;3.106;2023-03-01T04:37:23;0.20;99.90
17918;DHT22;9084;50.956;3.106;2023-03-01T04:39:51;0.20;99.90
17918;DHT22;9084;50.956;3.106;2023-03-01T04:42:20;0.30;99.90
17918;DHT22;9084;50.956;3.106;2023-03-01T04:44:47;0.20;99.90
17918;DHT22;9084;50.956;3.106;2023-03-01T04:47:16;0.20;99.90
17918;DHT22;9084;50.956;3.106;2023-03-01T04:49:44;0.10;99.90
17918;DHT22;9084;50.956;3.106;2023-03-01T04:52:10;0.20;99.90
17918;DHT22;9084;50.956;3.106;2023-03-01T04:54:36;0.10;99.90
17918;DHT22;9084;50.956;3.106;2023-03-01T04:57:03;0.10;99.90
17918;DHT22;9084;50.956;3.106;2023-03-01T04:59:29;0.20;99.90
17918;DHT22;9084;50.956;3.106;2023-03-01T05:01:56;0.10;99.90
17918;DHT22;9084;50.956;3.106;2023-03-01T05:04:23;0.10;99.90
17918;DHT22;9084;50.956;3.106;2023-03-01T05:06:51;0.10;99.90
17918;DHT22;9084;50.956;3.106;2023-03-01T05:09:19;0.10;99.90
17918;DHT22;9084;50.956;3.106;2023-03-01T05:11:45;0.10;99.90
17918;DHT22;9084;50.956;3.106;2023-03-01T05:14:11;0.10;99.90
17918;DHT22;9084;50.956;3.106;2023-03-01T05:16:37;0.10;99.90
17918;DHT22;9084;50.956;3.106;2023-03-01T05:19:03;0.10;99.90
17918;DHT22;9084;50.956;3.106;2023-03-01T05:21:41;0.10;99.90
17918;DHT22;9084;50.956;3.106;2023-03-01T05:24:25;0.10;99.90
17918;DHT22;9084;50.956;3.106;2023-03-01T05:26:52;0.10;99.90
17918;DHT22;9084;50.956;3.106;2023-03-01T05:29:24;0.10;99.90
17918;DHT22;9084;50.956;3.106;2023-03-01T05:31:54;0.10;99.90
17918;DHT22;9084;50.956;3.106;2023-03-01T05:34:24;0.10;99.90
17918;DHT22;9084;50.956;3.106;2023-03-01T05:36:51;0.00;99.90
17918;DHT22;9084;50.956;3.106;2023-03-01T05:39:21;0.10;99.90
17918;DHT22;9084;50.956;3.106;2023-03-01T05:41:48;0.00;99.90
17918;DHT22;9084;50.956;3.106;2023-03-01T05:44:17;-0.10;99.90
17918;DHT22;9084;50.956;3.106;2023-03-01T05:46:42;-0.10;99.90
17918;DHT22;9084;50.956;3.106;2023-03-01T05:49:08;-0.10;99.90
17918;DHT22;9084;50.956;3.106;2023-03-01T05:51:36;-0.20;99.90
17918;DHT22;9084;50.956;3.106;2023-03-01T05:54:02;-0.20;99.90
17918;DHT22;9084;50.956;3.106;2023-03-01T05:56:27;-0.10;99.90
17918;DHT22;9084;50.956;3.106;2023-03-01T05:58:54;-0.20;99.90
17918;DHT22;9084;50.956;3.106;2023-03-01T06:01:20;-0.20;99.90
17918;DHT22;9084;50.956;3.106;2023-03-01T06:03:45;-0.10;99.90
17918;DHT22;9084;50.956;3.106;2023-03-01T06:06:16;-0.10;99.90
17918;DHT22;9084;50.956;3.106;2023-03-01T06:08:44;-0.20;99.90
17918;DHT22;9084;50.956;3.106;2023-03-01T06:11:10;-0.20;99.90
17918;DHT22;9084;50.956;3.106;2023-03-01T06:13:37;-0.30;99.90
17918;DHT22;9084;50.956;3.106;2023-03-01T06:16:06;-0.30;99.90
17918;DHT22;9084;50.956;3.106;2023-03-01T06:18:34;-0.30;99.90
17918;DHT22;9084;50.956;3.106;2023-03-01T06:21:00;-0.30;99.90
17918;DHT22;9084;50.956;3.106;2023-03-01T06:23:26;-0.30;99.90
17918;DHT22;9084;50.956;3.106;2023-03-01T06:25:54;-0.20;99.90
17918;DHT22;9084;50.956;3.106;2023-03-01T06:28:19;-0.20;99.90
17918;DHT22;9084;50.956;3.106;2023-03-01T06:30:45;-0.20;99.90
17918;DHT22;9084;50.956;3.106;2023-03-01T06:33:11;-0.20;99.90
17918;DHT22;9084;50.956;3.106;2023-03-01T06:35:37;-0.20;99.90
17918;DHT22;9084;50.956;3.106;2023-03-01T06:38:04;-0.20;99.90
17918;DHT22;9084;50.956;3.106;2023-03-01T06:40:30;-0.10;99.90
17918;DHT22;9084;50.956;3.106;2023-03-01T06:42:56;-0.20;99.90
17918;DHT22;9084;50.956;3.106;2023-03-01T06:45:22;-0.20;99.90
17918;DHT22;9084;50.956;3.106;2023-03-01T06:47:48;-0.20;99.90
17918;DHT22;9084;50.956;3.106;2023-03-01T06:50:17;-0.30;99.90
17918;DHT22;9084;50.956;3.106;2023-03-01T06:52:44;-0.20;99.90
17918;DHT22;9084;50.956;3.106;2023-03-01T06:55:11;-0.10;99.90
17918;DHT22;9084;50.956;3.106;2023-03-01T06:57:37;-0.10;99.90
17918;DHT22;9084;50.956;3.106;2023-03-01T07:00:04;-0.10;99.90
17918;DHT22;9084;50.956;3.106;2023-03-01T07:02:30;0.00;99.90
17918;DHT22;9084;50.956;3.106;2023-03-01T07:04:58;0.10;99.90
17918;DHT22;9084;50.956;3.106;2023-03-01T07:07:23;0.10;99.90
17918;DHT22;9084;50.956;3.106;2023-03-01T07:09:51;0.10;99.90
17918;DHT22;9084;50.956;3.106;2023-03-01T07:12:21;0.20;99.90
17918;DHT22;9084;50.956;3.106;2023-03-01T07:14:46;0.20;99.90
17918;DHT22;9084;50.956;3.106;2023-03-01T07:17:14;0.20;99.90
17918;DHT22;9084;50.956;3.106;2023-03-01T07:19:40;0.30;99.90
17918;DHT22;9084;50.956;3.106;2023-03-01T07:22:05;0.30;99.90
17918;DHT22;9084;50.956;3.106;2023-03-01T07:24:33;0.30;99.90
17918;DHT22;9084;50.956;3.106;2023-03-01T07:27:01;0.30;99.90
17918;DHT22;9084;50.956;3.106;2023-03-01T07:29:27;0.40;99.90
17918;DHT22;9084;50.956;3.106;2023-03-01T07:31:55;0.30;99.90
17918;DHT22;9084;50.956;3.106;2023-03-01T07:34:23;0.40;99.90
17918;DHT22;9084;50.956;3.106;2023-03-01T07:36:48;0.40;99.90
17918;DHT22;9084;50.956;3.106;2023-03-01T07:39:15;0.40;99.90
17918;DHT22;9084;50.956;3.106;2023-03-01T07:41:40;0.50;99.90
17918;DHT22;9084;50.956;3.106;2023-03-01T07:44:08;0.60;99.90
17918;DHT22;9084;50.956;3.106;2023-03-01T07:46:34;0.60;99.90
17918;DHT22;9084;50.956;3.106;2023-03-01T07:49:00;0.70;99.90
17918;DHT22;9084;50.956;3.106;2023-03-01T07:51:26;0.70;99.90
17918;DHT22;9084;50.956;3.106;2023-03-01T07:53:51;0.80;99.90
17918;DHT22;9084;50.956;3.106;2023-03-01T07:56:17;0.90;99.90
17918;DHT22;9084;50.956;3.106;2023-03-01T07:58:44;0.90;99.90
17918;DHT22;9084;50.956;3.106;2023-03-01T08:01:13;1.00;99.90
17918;DHT22;9084;50.956;3.106;2023-03-01T08:03:40;1.00;99.90
17918;DHT22;9084;50.956;3.106;2023-03-01T08:06:07;1.10;99.90
17918;DHT22;9084;50.956;3.106;2023-03-01T08:08:34;1.20;99.90
17918;DHT22;9084;50.956;3.106;2023-03-01T08:11:01;1.20;99.90
17918;DHT22;9084;50.956;3.106;2023-03-01T08:13:28;1.30;99.90
17918;DHT22;9084;50.956;3.106;2023-03-01T08:15:54;1.40;99.90
17918;DHT22;9084;50.956;3.106;2023-03-01T08:18:20;1.40;99.90
17918;DHT22;9084;50.956;3.106;2023-03-01T08:20:47;1.50;99.90
17918;DHT22;9084;50.956;3.106;2023-03-01T08:23:13;1.60;99.80
17918;DHT22;9084;50.956;3.106;2023-03-01T08:25:39;1.60;99.90
17918;DHT22;9084;50.956;3.106;2023-03-01T08:28:05;1.60;99.90
17918;DHT22;9084;50.956;3.106;2023-03-01T08:30:31;1.60;99.90
17918;DHT22;9084;50.956;3.106;2023-03-01T08:32:57;1.70;99.90
17918;DHT22;9084;50.956;3.106;2023-03-01T08:35:23;1.80;99.40
17918;DHT22;9084;50.956;3.106;2023-03-01T08:37:48;1.80;98.10
17918;DHT22;9084;50.956;3.106;2023-03-01T08:40:17;1.90;93.40
17918;DHT22;9084;50.956;3.106;2023-03-01T08:42:45;2.00;88.70
17918;DHT22;9084;50.956;3.106;2023-03-01T08:45:13;2.10;91.00
17918;DHT22;9084;50.956;3.106;2023-03-01T08:47:43;2.10;80.70
17918;DHT22;9084;50.956;3.106;2023-03-01T08:50:14;2.10;75.00
17918;DHT22;9084;50.956;3.106;2023-03-01T08:52:39;2.20;53.50
17918;DHT22;9084;50.956;3.106;2023-03-01T08:55:06;2.30;99.90
17918;DHT22;9084;50.956;3.106;2023-03-01T08:57:34;2.30;58.80
17918;DHT22;9084;50.956;3.106;2023-03-01T09:00:00;2.40;68.60
17918;DHT22;9084;50.956;3.106;2023-03-01T09:02:25;2.40;60.70
17918;DHT22;9084;50.956;3.106;2023-03-01T09:04:51;2.50;99.90
17918;DHT22;9084;50.956;3.106;2023-03-01T09:07:19;2.50;99.90
17918;DHT22;9084;50.956;3.106;2023-03-01T09:09:47;2.60;99.90
17918;DHT22;9084;50.956;3.106;2023-03-01T09:12:12;2.70;99.90
17918;DHT22;9084;50.956;3.106;2023-03-01T09:14:40;2.80;99.90
17918;DHT22;9084;50.956;3.106;2023-03-01T09:17:07;2.80;99.90
17918;DHT22;9084;50.956;3.106;2023-03-01T09:19:32;2.90;99.90
17918;DHT22;9084;50.956;3.106;2023-03-01T09:21:58;3.00;99.90
17918;DHT22;9084;50.956;3.106;2023-03-01T09:24:24;3.10;99.90
17918;DHT22;9084;50.956;3.106;2023-03-01T09:26:53;3.10;99.90
17918;DHT22;9084;50.956;3.106;2023-03-01T09:29:19;3.20;99.90
17918;DHT22;9084;50.956;3.106;2023-03-01T09:31:45;3.30;99.90
17918;DHT22;9084;50.956;3.106;2023-03-01T09:34:10;3.30;99.90
17918;DHT22;9084;50.956;3.106;2023-03-01T09:36:39;3.40;99.90
17918;DHT22;9084;50.956;3.106;2023-03-01T09:39:04;3.40;99.90
17918;DHT22;9084;50.956;3.106;2023-03-01T09:44:25;3.60;99.90
17918;DHT22;9084;50.956;3.106;2023-03-01T09:46:53;3.60;99.90
17918;DHT22;9084;50.956;3.106;2023-03-01T09:49:21;3.70;99.90
17918;DHT22;9084;50.956;3.106;2023-03-01T09:52:03;3.70;99.90
17918;DHT22;9084;50.956;3.106;2023-03-01T09:54:35;3.80;99.90
17918;DHT22;9084;50.956;3.106;2023-03-01T09:59:30;3.90;99.90
17918;DHT22;9084;50.956;3.106;2023-03-01T10:10:37;4.20;99.90
17918;DHT22;9084;50.956;3.106;2023-03-01T10:13:17;4.20;99.90
17918;DHT22;9084;50.956;3.106;2023-03-01T10:16:37;4.30;99.90
17918;DHT22;9084;50.956;3.106;2023-03-01T10:19:01;4.40;99.90
17918;DHT22;9084;50.956;3.106;2023-03-01T10:21:28;4.40;99.90
17918;DHT22;9084;50.956;3.106;2023-03-01T10:24:09;4.40;99.90
17918;DHT22;9084;50.956;3.106;2023-03-01T10:26:47;4.50;99.90
17918;DHT22;9084;50.956;3.106;2023-03-01T10:29:16;4.50;99.90
17918;DHT22;9084;50.956;3.106;2023-03-01T10:31:49;4.60;99.90
17918;DHT22;9084;50.956;3.106;2023-03-01T10:34:20;4.60;99.90
17918;DHT22;9084;50.956;3.106;2023-03-01T10:36:53;4.60;99.90
17918;DHT22;9084;50.956;3.106;2023-03-01T10:39:23;4.60;99.40
17918;DHT22;9084;50.956;3.106;2023-03-01T10:41:59;4.70;99.00
17918;DHT22;9084;50.956;3.106;2023-03-01T10:44:45;4.70;99.20
17918;DHT22;9084;50.956;3.106;2023-03-01T10:47:17;4.80;98.40
17918;DHT22;9084;50.956;3.106;2023-03-01T10:50:09;4.80;96.80
17918;DHT22;9084;50.956;3.106;2023-03-01T10:52:57;4.80;97.60
17918;DHT22;9084;50.956;3.106;2023-03-01T10:55:40;4.90;96.60
17918;DHT22;9084;50.956;3.106;2023-03-01T10:58:08;4.90;97.50
17918;DHT22;9084;50.956;3.106;2023-03-01T11:03:14;5.00;96.30
17918;DHT22;9084;50.956;3.106;2023-03-01T11:08:43;5.10;95.50
17918;DHT22;9084;50.956;3.106;2023-03-01T11:13:58;5.20;97.30
17918;DHT22;9084;50.956;3.106;2023-03-01T11:19:13;5.20;95.50
17918;DHT22;9084;50.956;3.106;2023-03-01T11:22:02;5.30;96.40
17918;DHT22;9084;50.956;3.106;2023-03-01T11:24:41;5.30;95.50
17918;DHT22;9084;50.956;3.106;2023-03-01T11:27:17;5.30;96.40
17918;DHT22;9084;50.956;3.106;2023-03-01T11:32:39;5.40;96.00
17918;DHT22;9084;50.956;3.106;2023-03-01T11:35:19;5.40;94.80
17918;DHT22;9084;50.956;3.106;2023-03-01T11:38:21;5.50;94.70
17918;DHT22;9084;50.956;3.106;2023-03-01T11:40:52;5.50;95.60
17918;DHT22;9084;50.956;3.106;2023-03-01T11:43:27;5.50;95.70
17918;DHT22;9084;50.956;3.106;2023-03-01T11:48:59;5.60;94.00
17918;DHT22;9084;50.956;3.106;2023-03-01T11:57:22;5.80;93.30
17918;DHT22;9084;50.956;3.106;2023-03-01T12:08:29;5.80;93.60
17918;DHT22;9084;50.956;3.106;2023-03-01T12:11:28;5.90;94.30
17918;DHT22;9084;50.956;3.106;2023-03-01T12:22:31;5.90;92.40
17918;DHT22;9084;50.956;3.106;2023-03-01T12:28:17;5.90;92.30
17918;DHT22;9084;50.956;3.106;2023-03-01T12:50:46;6.10;91.90
17918;DHT22;9084;50.956;3.106;2023-03-01T12:53:25;6.00;92.30
17918;DHT22;9084;50.956;3.106;2023-03-01T12:55:54;6.10;93.20
17918;DHT22;9084;50.956;3.106;2023-03-01T13:06:55;6.10;92.60
17918;DHT22;9084;50.956;3.106;2023-03-01T13:09:37;6.10;93.60
17918;DHT22;9084;50.956;3.106;2023-03-01T13:15:37;6.10;93.30
17918;DHT22;9084;50.956;3.106;2023-03-01T13:26:12;6.30;93.20
17918;DHT22;9084;50.956;3.106;2023-03-01T13:33:54;6.40;92.60
17918;DHT22;9084;50.956;3.106;2023-03-01T13:38:57;6.30;91.50
17918;DHT22;9084;50.956;3.106;2023-03-01T13:46:47;6.40;92.50
17918;DHT22;9084;50.956;3.106;2023-03-01T13:49:18;6.40;93.00
17918;DHT22;9084;50.956;3.106;2023-03-01T13:51:49;6.40;92.40
17918;DHT22;9084;50.956;3.106;2023-03-01T13:54:26;6.40;91.50
17918;DHT22;9084;50.956;3.106;2023-03-01T13:56:55;6.40;92.30
17918;DHT22;9084;50.956;3.106;2023-03-01T13:59:23;6.50;91.90
17918;DHT22;9084;50.956;3.106;2023-03-01T14:02:00;6.50;89.90
17918;DHT22;9084;50.956;3.106;2023-03-01T14:04:30;6.50;91.10
17918;DHT22;9084;50.956;3.106;2023-03-01T14:07:16;6.50;92.50
17918;DHT22;9084;50.956;3.106;2023-03-01T14:09:47;6.50;91.70
17918;DHT22;9084;50.956;3.106;2023-03-01T14:20:07;6.50;94.80
17918;DHT22;9084;50.956;3.106;2023-03-01T14:22:34;6.50;94.00
17918;DHT22;9084;50.956;3.106;2023-03-01T14:25:06;6.50;92.50
17918;DHT22;9084;50.956;3.106;2023-03-01T14:27:42;6.50;93.40
17918;DHT22;9084;50.956;3.106;2023-03-01T14:32:58;6.60;94.40
17918;DHT22;9084;50.956;3.106;2023-03-01T14:35:27;6.60;93.30
17918;DHT22;9084;50.956;3.106;2023-03-01T14:37:53;6.60;92.30
17918;DHT22;9084;50.956;3.106;2023-03-01T14:40:33;6.60;93.60
17918;DHT22;9084;50.956;3.106;2023-03-01T14:43:08;6.60;93.30
17918;DHT22;9084;50.956;3.106;2023-03-01T14:45:36;6.70;92.80
17918;DHT22;9084;50.956;3.106;2023-03-01T14:48:04;6.60;93.10
17918;DHT22;9084;50.956;3.106;2023-03-01T14:50:35;6.60;92.70
17918;DHT22;9084;50.956;3.106;2023-03-01T14:53:06;6.50;93.60
17918;DHT22;9084;50.956;3.106;2023-03-01T14:55:40;6.50;94.20
17918;DHT22;9084;50.956;3.106;2023-03-01T14:58:13;6.50;93.80
17918;DHT22;9084;50.956;3.106;2023-03-01T15:01:01;6.50;93.50
17918;DHT22;9084;50.956;3.106;2023-03-01T15:06:05;6.50;93.70
17918;DHT22;9084;50.956;3.106;2023-03-01T15:08:34;6.50;93.60
17918;DHT22;9084;50.956;3.106;2023-03-01T15:11:22;6.50;93.80
17918;DHT22;9084;50.956;3.106;2023-03-01T15:13:52;6.50;94.00
17918;DHT22;9084;50.956;3.106;2023-03-01T15:16:22;6.50;93.30
17918;DHT22;9084;50.956;3.106;2023-03-01T15:18:52;6.60;93.30
17918;DHT22;9084;50.956;3.106;2023-03-01T15:21:34;6.60;93.50
17918;DHT22;9084;50.956;3.106;2023-03-01T15:26:50;6.50;93.10
17918;DHT22;9084;50.956;3.106;2023-03-01T15:29:23;6.50;93.20
17918;DHT22;9084;50.956;3.106;2023-03-01T15:31:56;6.40;92.70
17918;DHT22;9084;50.956;3.106;2023-03-01T15:34:25;6.40;94.10
17918;DHT22;9084;50.956;3.106;2023-03-01T15:36:55;6.40;94.00
17918;DHT22;9084;50.956;3.106;2023-03-01T15:39:52;6.40;93.70
17918;DHT22;9084;50.956;3.106;2023-03-01T15:45:28;6.50;93.70
17918;DHT22;9084;50.956;3.106;2023-03-01T15:48:00;6.40;93.90
17918;DHT22;9084;50.956;3.106;2023-03-01T15:50:31;6.40;93.90
17918;DHT22;9084;50.956;3.106;2023-03-01T15:53:04;6.30;94.20
17918;DHT22;9084;50.956;3.106;2023-03-01T15:55:32;6.40;93.60
17918;DHT22;9084;50.956;3.106;2023-03-01T16:00:44;6.30;94.30
17918;DHT22;9084;50.956;3.106;2023-03-01T16:03:14;6.20;94.30
17918;DHT22;9084;50.956;3.106;2023-03-01T16:05:42;6.20;94.70
17918;DHT22;9084;50.956;3.106;2023-03-01T16:08:08;6.20;94.90
17918;DHT22;9084;50.956;3.106;2023-03-01T16:10:37;6.20;95.00
17918;DHT22;9084;50.956;3.106;2023-03-01T16:13:02;6.20;94.40
17918;DHT22;9084;50.956;3.106;2023-03-01T16:15:32;6.10;94.80
17918;DHT22;9084;50.956;3.106;2023-03-01T16:18:00;6.10;95.20
17918;DHT22;9084;50.956;3.106;2023-03-01T16:20:28;6.10;95.30
17918;DHT22;9084;50.956;3.106;2023-03-01T16:22:57;6.00;96.00
17918;DHT22;9084;50.956;3.106;2023-03-01T16:25:23;6.00;96.40
17918;DHT22;9084;50.956;3.106;2023-03-01T16:27:54;5.90;96.80
17918;DHT22;9084;50.956;3.106;2023-03-01T16:30:22;5.90;96.40
17918;DHT22;9084;50.956;3.106;2023-03-01T16:32:49;5.90;96.20
17918;DHT22;9084;50.956;3.106;2023-03-01T16:35:20;5.90;96.50
17918;DHT22;9084;50.956;3.106;2023-03-01T16:37:46;5.80;97.00
17918;DHT22;9084;50.956;3.106;2023-03-01T16:40:20;5.90;97.00
17918;DHT22;9084;50.956;3.106;2023-03-01T16:42:52;5.90;97.00
17918;DHT22;9084;50.956;3.106;2023-03-01T16:45:19;5.80;97.20
17918;DHT22;9084;50.956;3.106;2023-03-01T16:47:45;5.70;97.40
17918;DHT22;9084;50.956;3.106;2023-03-01T16:50:12;5.60;97.90
17918;DHT22;9084;50.956;3.106;2023-03-01T16:52:38;5.60;98.00
17918;DHT22;9084;50.956;3.106;2023-03-01T16:55:05;5.50;98.50
17918;DHT22;9084;50.956;3.106;2023-03-01T16:57:34;5.50;99.40
17918;DHT22;9084;50.956;3.106;2023-03-01T17:00:08;5.50;99.60
17918;DHT22;9084;50.956;3.106;2023-03-01T17:02:38;5.40;99.90
17918;DHT22;9084;50.956;3.106;2023-03-01T17:05:05;5.40;99.90
17918;DHT22;9084;50.956;3.106;2023-03-01T17:07:31;5.40;99.90
17918;DHT22;9084;50.956;3.106;2023-03-01T17:10:02;5.30;99.90
17918;DHT22;9084;50.956;3.106;2023-03-01T17:12:31;5.30;99.90
17918;DHT22;9084;50.956;3.106;2023-03-01T17:14:58;5.20;99.90
17918;DHT22;9084;50.956;3.106;2023-03-01T17:17:23;5.20;99.90
17918;DHT22;9084;50.956;3.106;2023-03-01T17:19:51;5.10;99.90
17918;DHT22;9084;50.956;3.106;2023-03-01T17:22:18;5.00;99.90
17918;DHT22;9084;50.956;3.106;2023-03-01T17:24:44;5.00;99.90
17918;DHT22;9084;50.956;3.106;2023-03-01T17:27:12;5.00;99.90
17918;DHT22;9084;50.956;3.106;2023-03-01T17:29:41;4.90;99.90
17918;DHT22;9084;50.956;3.106;2023-03-01T17:32:07;4.80;99.90
17918;DHT22;9084;50.956;3.106;2023-03-01T17:34:34;4.80;99.90
17918;DHT22;9084;50.956;3.106;2023-03-01T17:37:02;4.70;99.90
17918;DHT22;9084;50.956;3.106;2023-03-01T17:39:28;4.70;99.90
17918;DHT22;9084;50.956;3.106;2023-03-01T17:42:01;4.60;99.90
17918;DHT22;9084;50.956;3.106;2023-03-01T17:44:29;4.50;99.90
17918;DHT22;9084;50.956;3.106;2023-03-01T17:46:55;4.50;99.90
17918;DHT22;9084;50.956;3.106;2023-03-01T17:49:23;4.40;99.90
17918;DHT22;9084;50.956;3.106;2023-03-01T17:51:49;4.30;99.90
17918;DHT22;9084;50.956;3.106;2023-03-01T17:54:15;4.30;99.90
17918;DHT22;9084;50.956;3.106;2023-03-01T17:56:43;4.20;99.90
17918;DHT22;9084;50.956;3.106;2023-03-01T17:59:08;4.20;99.90
17918;DHT22;9084;50.956;3.106;2023-03-01T18:01:34;4.10;99.90
17918;DHT22;9084;50.956;3.106;2023-03-01T18:04:02;4.10;99.90
17918;DHT22;9084;50.956;3.106;2023-03-01T18:06:28;4.10;99.90
17918;DHT22;9084;50.956;3.106;2023-03-01T18:08:56;4.00;99.90
17918;DHT22;9084;50.956;3.106;2023-03-01T18:11:23;4.00;99.90
17918;DHT22;9084;50.956;3.106;2023-03-01T18:13:50;4.00;99.90
17918;DHT22;9084;50.956;3.106;2023-03-01T18:16:21;4.00;99.90
17918;DHT22;9084;50.956;3.106;2023-03-01T18:18:51;4.00;99.90
17918;DHT22;9084;50.956;3.106;2023-03-01T18:21:19;3.90;99.90
17918;DHT22;9084;50.956;3.106;2023-03-01T18:23:46;3.90;99.90
17918;DHT22;9084;50.956;3.106;2023-03-01T18:26:13;3.80;99.90
17918;DHT22;9084;50.956;3.106;2023-03-01T18:28:46;3.80;99.90
17918;DHT22;9084;50.956;3.106;2023-03-01T18:31:14;3.80;99.90